Time;durP1;ratioP1;P1;durP2;ratioP2;P2;SDS_P1;SDS_P2;PMS_P1;PMS_P2;Temp;Humidity;BMP_temperature;BMP_pressure;BME280_temperature;BME280_humidity;BME280_pressure;Samples;Min_cycle;Max_cycle;Signal;HPM_P1;HPM_P2
2022/09/15 00:01:38;;;;;;;3.80;2.13;;;;;;;;;;5056188;28;48375;-64
2022/09/15 00:04:04;;;;;;;7.70;1.80;;;18.10;64.00;;;;;;5044325;28;46422;-63
2022/09/15 00:06:30;;;;;;;4.90;2.17;;;;;;;;;;5045038;28;46527;-64
2022/09/15 00:08:58;;;;;;;4.83;1.83;;;;;;;;;;5046831;28;46450;-64
2022/09/15 00:11:27;;;;;;;5.10;2.20;;;18.30;66.10;;;;;;5044933;28;47194;-64
2022/09/15 00:13:55;;;;;;;4.63;2.33;;;18.40;61.10;;;;;;5049962;28;46859;-65
2022/09/15 00:16:23;;;;;;;4.70;1.90;;;18.50;60.90;;;;;;5047777;28;46381;-63
2022/09/15 00:18:49;;;;;;;5.53;2.07;;;;;;;;;;5048625;28;46344;-63
2022/09/15 00:21:20;;;;;;;4.20;2.20;;;18.40;60.50;;;;;;5048467;28;47462;-64
2022/09/15 00:23:47;;;;;;;13.17;2.20;;;18.40;67.30;;;;;;5048061;28;46358;-64
2022/09/15 00:26:15;;;;;;;4.20;2.03;;;18.70;61.30;;;;;;5045747;28;46363;-64
2022/09/15 00:28:42;;;;;;;5.27;2.20;;;;;;;;;;5047765;28;46573;-64
2022/09/15 00:31:10;;;;;;;7.30;2.10;;;18.50;60.80;;;;;;5045693;28;47984;-64
2022/09/15 00:33:37;;;;;;;7.33;2.80;;;18.50;60.70;;;;;;5046458;28;46434;-64
2022/09/15 00:36:05;;;;;;;5.33;2.10;;;18.60;62.90;;;;;;5048535;28;46615;-64
2022/09/15 00:38:32;;;;;;;5.33;2.30;;;18.40;68.00;;;;;;5045352;28;46282;-64
2022/09/15 00:40:59;;;;;;;2.93;1.60;;;18.50;60.50;;;;;;5047062;28;47605;-64
2022/09/15 00:43:48;;;;;;;2.40;1.50;;;18.40;67.90;;;;;;5048807;28;46398;-65
2022/09/15 00:46:18;;;;;;;4.63;1.67;;;18.50;60.40;;;;;;5047252;28;46324;-64
2022/09/15 00:49:07;;;;;;;6.00;2.40;;;18.50;60.50;;;;;;5052871;28;46347;-64
2022/09/15 00:51:53;;;;;;;4.93;2.03;;;18.40;61.40;;;;;;5046121;28;46357;-64
2022/09/15 00:54:25;;;;;;;3.57;1.90;;;18.40;60.50;;;;;;5045480;28;46326;-64
2022/09/15 00:56:53;;;;;;;6.53;1.47;;;18.30;63.30;;;;;;5048405;28;46342;-63
2022/09/15 00:59:23;;;;;;;2.97;1.50;;;18.20;65.70;;;;;;5044448;28;46769;-65
2022/09/15 01:01:54;;;;;;;3.70;1.63;;;18.40;60.90;;;;;;5048222;28;47691;-65
2022/09/15 01:04:19;;;;;;;3.23;1.80;;;18.70;61.20;;;;;;5044698;28;46919;-65
2022/09/15 01:06:54;;;;;;;4.00;1.63;;;18.30;60.40;;;;;;5046140;28;46422;-65
2022/09/15 01:09:28;;;;;;;4.53;1.60;;;17.90;68.90;;;;;;5047451;28;46362;-66
2022/09/15 01:11:54;;;;;;;5.83;1.90;;;18.40;66.30;;;;;;5045821;28;47629;-65
2022/09/15 01:14:19;;;;;;;5.30;1.63;;;18.40;69.20;;;;;;5044916;28;46779;-63
2022/09/15 01:17:10;;;;;;;3.77;1.97;;;18.30;59.80;;;;;;5053621;28;46360;-64
2022/09/15 01:19:55;;;;;;;3.73;1.57;;;18.30;59.70;;;;;;5048743;28;46558;-64
2022/09/15 01:22:55;;;;;;;6.83;1.97;;;18.30;67.00;;;;;;5049824;28;47224;-64
2022/09/15 01:25:52;;;;;;;8.40;1.90;;;18.30;59.40;;;;;;5039567;28;46825;-64
2022/09/15 01:28:43;;;;;;;11.73;1.80;;;18.20;59.00;;;;;;5051544;28;46520;-64
2022/09/15 01:31:18;;;;;;;6.60;2.20;;;18.30;67.70;;;;;;5046163;28;46397;-64
2022/09/15 01:33:58;;;;;;;3.27;1.70;;;18.20;58.90;;;;;;5048615;28;47231;-64
2022/09/15 01:36:34;;;;;;;7.00;1.90;;;18.20;59.00;;;;;;5050116;28;46789;-64
2022/09/15 01:39:03;;;;;;;3.37;2.20;;;18.30;68.10;;;;;;5051703;28;46521;-64
2022/09/15 01:41:43;;;;;;;5.10;1.83;;;18.20;58.90;;;;;;5049869;28;45967;-64
2022/09/15 01:44:21;;;;;;;6.50;1.80;;;17.90;67.40;;;;;;5049680;28;47397;-64
2022/09/15 01:46:54;;;;;;;4.30;2.00;;;18.10;59.00;;;;;;5049177;28;46357;-64
2022/09/15 01:49:24;;;;;;;3.30;1.70;;;18.10;59.30;;;;;;5047643;28;46873;-65
2022/09/15 01:51:52;;;;;;;12.63;2.23;;;18.00;59.20;;;;;;5050586;28;46335;-65
2022/09/15 01:54:21;;;;;;;3.67;2.03;;;;;;;;;;5047555;28;46660;-65
2022/09/15 01:56:47;;;;;;;4.63;2.00;;;18.20;65.90;;;;;;5054648;28;47734;-64
2022/09/15 01:59:12;;;;;;;3.73;1.70;;;17.90;65.50;;;;;;5042823;28;46453;-64
2022/09/15 02:01:46;;;;;;;5.23;1.80;;;18.00;58.80;;;;;;5050412;28;46182;-64
2022/09/15 02:04:17;;;;;;;4.90;1.67;;;18.20;68.00;;;;;;5046919;28;47400;-64
2022/09/15 02:07:13;;;;;;;5.67;1.80;;;18.00;58.80;;;;;;5048534;28;46475;-64
2022/09/15 02:10:14;;;;;;;5.27;2.40;;;17.90;58.80;;;;;;5048702;28;46460;-64
2022/09/15 02:13:05;;;;;;;6.17;1.40;;;17.90;58.90;;;;;;5036203;28;46644;-64
2022/09/15 02:15:36;;;;;;;4.30;1.60;;;17.90;58.80;;;;;;5047293;28;46467;-64
2022/09/15 02:18:05;;;;;;;4.87;1.67;;;17.80;59.00;;;;;;5052699;28;46113;-64
2022/09/15 02:20:31;;;;;;;3.80;1.77;;;;;;;;;;5046483;28;46375;-64
2022/09/15 02:23:06;;;;;;;3.70;1.40;;;17.70;59.00;;;;;;5046723;28;46580;-64
2022/09/15 02:25:43;;;;;;;5.60;1.93;;;17.70;59.10;;;;;;5045199;28;46964;-64
2022/09/15 02:28:12;;;;;;;4.00;1.90;;;17.70;59.20;;;;;;5045033;28;46266;-64
2022/09/15 02:30:41;;;;;;;4.70;1.50;;;17.70;67.80;;;;;;5051050;28;46467;-64
2022/09/15 02:33:13;;;;;;;8.90;1.67;;;17.80;62.10;;;;;;5047004;28;46529;-64
2022/09/15 02:35:40;;;;;;;5.63;1.83;;;17.80;65.10;;;;;;5048660;28;46636;-64
2022/09/15 02:38:08;;;;;;;6.40;1.83;;;17.20;61.20;;;;;;5049092;28;46527;-64
2022/09/15 02:40:36;;;;;;;8.97;2.20;;;17.40;59.70;;;;;;5047603;28;46260;-64
2022/09/15 02:43:04;;;;;;;6.07;1.40;;;17.60;61.20;;;;;;5048856;28;46385;-64
2022/09/15 02:45:30;;;;;;;7.53;2.37;;;17.30;59.80;;;;;;5048565;28;46041;-64
2022/09/15 02:47:57;;;;;;;6.67;1.60;;;17.30;59.90;;;;;;5047501;28;46559;-64
2022/09/15 02:50:26;;;;;;;2.83;1.43;;;17.30;62.90;;;;;;5046936;28;46457;-64
2022/09/15 02:52:55;;;;;;;4.80;1.70;;;17.30;60.00;;;;;;5048422;28;46932;-64
2022/09/15 02:55:21;;;;;;;5.10;1.70;;;17.40;63.00;;;;;;5047323;28;47090;-64
2022/09/15 02:57:47;;;;;;;6.20;1.97;;;17.40;66.90;;;;;;5045664;28;46374;-64
2022/09/15 03:00:14;;;;;;;3.57;1.73;;;17.30;59.90;;;;;;5057569;28;46361;-64
2022/09/15 03:02:52;;;;;;;3.33;1.47;;;17.50;70.50;;;;;;5046245;28;46460;-64
2022/09/15 03:05:20;;;;;;;8.10;2.10;;;17.30;59.30;;;;;;5048736;28;46494;-64
2022/09/15 03:07:46;;;;;;;8.43;1.67;;;17.50;60.70;;;;;;5047641;28;46366;-64
2022/09/15 03:10:13;;;;;;;13.87;1.60;;;17.30;61.10;;;;;;5052422;28;46311;-64
2022/09/15 03:12:43;;;;;;;6.90;2.17;;;17.40;68.20;;;;;;5045540;28;46354;-64
2022/09/15 03:15:11;;;;;;;4.10;1.57;;;17.40;59.00;;;;;;5051179;28;46754;-64
2022/09/15 03:17:40;;;;;;;5.00;1.83;;;17.40;63.60;;;;;;5048657;28;46415;-64
2022/09/15 03:20:07;;;;;;;6.00;1.90;;;17.10;59.30;;;;;;5050690;28;46289;-64
2022/09/15 03:22:34;;;;;;;3.10;1.70;;;;;;;;;;5048056;28;46487;-64
2022/09/15 03:25:00;;;;;;;5.20;1.70;;;;;;;;;;5045371;28;46381;-64
2022/09/15 03:27:25;;;;;;;3.97;1.80;;;17.40;62.00;;;;;;5051720;28;46472;-64
2022/09/15 03:29:51;;;;;;;4.03;1.57;;;17.10;59.60;;;;;;5052146;28;46492;-64
2022/09/15 03:32:17;;;;;;;5.10;1.50;;;17.30;59.60;;;;;;5050050;28;46441;-64
2022/09/15 03:34:43;;;;;;;5.80;1.60;;;;;;;;;;5049505;28;46414;-64
2022/09/15 03:37:09;;;;;;;2.93;1.50;;;;;;;;;;5047408;28;46446;-64
2022/09/15 03:39:35;;;;;;;2.80;1.40;;;17.20;61.00;;;;;;5048059;28;46453;-64
2022/09/15 03:42:01;;;;;;;3.30;1.57;;;;;;;;;;5048840;28;46542;-64
2022/09/15 03:44:27;;;;;;;2.60;1.50;;;;;;;;;;5043323;28;46326;-64
2022/09/15 03:46:53;;;;;;;4.30;1.70;;;;;;;;;;5049465;28;46222;-64
2022/09/15 03:49:18;;;;;;;7.00;1.30;;;17.60;61.10;;;;;;5049413;28;46442;-64
2022/09/15 03:51:44;;;;;;;3.30;1.17;;;17.80;59.10;;;;;;5046905;28;46492;-64
2022/09/15 03:54:10;;;;;;;6.50;1.40;;;17.80;65.60;;;;;;5050691;28;46057;-64
2022/09/15 03:56:36;;;;;;;2.90;1.40;;;;;;;;;;5048948;28;46426;-63
2022/09/15 03:59:05;;;;;;;3.47;1.20;;;17.80;57.80;;;;;;5047957;28;46356;-63
2022/09/15 04:01:31;;;;;;;3.40;1.47;;;;;;;;;;5050763;28;46370;-63
2022/09/15 04:03:57;;;;;;;5.00;1.50;;;17.80;57.70;;;;;;5052062;28;46112;-63
2022/09/15 04:06:23;;;;;;;2.47;1.27;;;18.10;64.80;;;;;;5049029;28;46564;-64
2022/09/15 04:08:49;;;;;;;4.00;1.40;;;17.90;60.10;;;;;;5046106;28;46471;-64
2022/09/15 04:11:17;;;;;;;2.37;1.17;;;17.70;57.70;;;;;;5047265;28;45833;-64
2022/09/15 04:13:43;;;;;;;3.57;1.50;;;;;;;;;;5047264;28;48114;-64
2022/09/15 04:16:12;;;;;;;4.47;1.10;;;17.80;64.50;;;;;;5053277;28;46480;-64
2022/09/15 04:18:37;;;;;;;5.40;1.43;;;17.40;65.10;;;;;;5047794;28;46435;-64
2022/09/15 04:21:06;;;;;;;2.10;1.10;;;17.60;57.70;;;;;;5049871;28;46491;-65
2022/09/15 04:23:32;;;;;;;3.87;1.30;;;17.70;60.30;;;;;;5044805;28;47234;-64
2022/09/15 04:26:01;;;;;;;3.23;1.23;;;17.40;59.70;;;;;;5049686;28;46368;-64
2022/09/15 04:28:28;;;;;;;4.63;1.20;;;17.40;66.60;;;;;;5054309;28;46610;-66
2022/09/15 04:31:01;;;;;;;5.47;1.20;;;17.60;57.70;;;;;;5045044;28;46676;-64
2022/09/15 04:33:27;;;;;;;3.07;1.10;;;;;;;;;;5046650;28;46591;-64
2022/09/15 04:36:04;;;;;;;3.30;1.20;;;17.60;57.70;;;;;;5048592;28;46460;-64
2022/09/15 04:38:30;;;;;;;3.87;1.20;;;;;;;;;;5048430;28;46358;-64
2022/09/15 04:40:57;;;;;;;2.33;1.20;;;;;;;;;;5047190;28;46362;-63
2022/09/15 04:43:24;;;;;;;3.00;1.40;;;17.60;57.60;;;;;;5047245;28;48100;-63
2022/09/15 04:45:50;;;;;;;2.47;1.20;;;17.30;66.50;;;;;;5046881;28;46331;-63
2022/09/15 04:48:16;;;;;;;5.53;1.27;;;17.90;59.60;;;;;;5043698;28;46440;-63
2022/09/15 04:50:42;;;;;;;3.00;1.00;;;;;;;;;;5049075;28;45916;-63
2022/09/15 04:53:08;;;;;;;1.90;0.80;;;;;;;;;;5051168;28;48330;-63
2022/09/15 04:55:34;;;;;;;2.50;1.10;;;;;;;;;;5054686;28;46291;-63
2022/09/15 04:58:01;;;;;;;4.97;1.50;;;17.60;57.10;;;;;;5051346;28;46346;-63
2022/09/15 05:00:28;;;;;;;2.10;1.00;;;17.50;57.60;;;;;;5053259;28;46359;-63
2022/09/15 05:02:54;;;;;;;2.57;1.30;;;;;;;;;;5049948;28;47441;-63
2022/09/15 05:05:19;;;;;;;2.70;1.13;;;17.00;56.60;;;;;;5050418;28;46382;-63
2022/09/15 05:07:48;;;;;;;3.87;1.07;;;17.60;57.70;;;;;;5051725;28;46351;-63
2022/09/15 05:10:14;;;;;;;3.17;1.30;;;;;;;;;;5049901;28;46393;-63
2022/09/15 05:12:40;;;;;;;3.10;1.17;;;;;;;;;;5049849;28;46645;-63
2022/09/15 05:15:07;;;;;;;4.60;1.20;;;17.50;63.10;;;;;;5050899;28;45930;-63
2022/09/15 05:17:33;;;;;;;2.67;1.20;;;17.90;65.70;;;;;;5049399;28;46683;-63
2022/09/15 05:19:59;;;;;;;4.83;1.30;;;17.60;65.90;;;;;;5051558;28;45908;-65
2022/09/15 05:22:26;;;;;;;2.73;1.20;;;17.80;55.90;;;;;;5049204;28;46647;-63
2022/09/15 05:24:51;;;;;;;6.67;1.20;;;18.00;63.50;;;;;;5049999;28;46664;-64
2022/09/15 05:27:17;;;;;;;4.83;1.50;;;17.70;61.40;;;;;;5049974;28;46283;-63
2022/09/15 05:29:43;;;;;;;2.00;1.00;;;18.10;60.70;;;;;;5048251;28;46358;-63
2022/09/15 05:32:09;;;;;;;2.20;1.10;;;;;;;;;;5049443;28;46901;-63
2022/09/15 05:34:35;;;;;;;5.77;1.10;;;;;;;;;;5053127;28;46697;-63
2022/09/15 05:37:01;;;;;;;4.83;1.30;;;17.70;55.30;;;;;;5047866;28;46438;-64
2022/09/15 05:39:27;;;;;;;3.63;0.97;;;18.20;57.50;;;;;;5051435;28;46716;-63
2022/09/15 05:41:52;;;;;;;2.20;1.03;;;18.20;60.70;;;;;;5047109;28;47272;-62
2022/09/15 05:44:20;;;;;;;2.10;1.00;;;18.50;57.60;;;;;;5055902;28;46580;-63
2022/09/15 05:46:46;;;;;;;3.27;1.20;;;;;;;;;;5047244;28;46332;-63
2022/09/15 05:49:11;;;;;;;2.70;1.20;;;18.40;54.50;;;;;;5050415;28;46484;-64
2022/09/15 05:51:37;;;;;;;2.70;1.40;;;;;;;;;;5056812;28;47559;-63
2022/09/15 05:54:03;;;;;;;2.33;1.07;;;;;;;;;;5054399;28;46392;-65
2022/09/15 05:56:30;;;;;;;3.33;1.30;;;;;;;;;;5047755;28;46484;-65
2022/09/15 05:58:56;;;;;;;8.73;1.57;;;18.80;63.30;;;;;;5050845;28;46626;-64
2022/09/15 06:01:24;;;;;;;7.77;1.10;;;18.80;53.30;;;;;;5051285;27;47192;-65
2022/09/15 06:03:50;;;;;;;3.07;1.10;;;19.00;62.90;;;;;;5046178;28;46315;-65
2022/09/15 06:06:16;;;;;;;8.40;1.10;;;;;;;;;;5047925;28;46566;-65
2022/09/15 06:08:45;;;;;;;9.33;1.60;;;18.40;52.90;;;;;;5051542;28;46524;-65
2022/09/15 06:11:17;;;;;;;3.83;1.07;;;18.70;53.20;;;;;;5048753;28;47430;-63
2022/09/15 06:13:43;;;;;;;5.97;1.40;;;18.90;63.20;;;;;;5051120;28;46438;-62
2022/09/15 06:16:11;;;;;;;10.43;1.33;;;18.70;53.10;;;;;;5048544;28;46427;-64
2022/09/15 06:18:38;;;;;;;2.87;1.23;;;19.00;58.80;;;;;;5051379;28;46473;-63
2022/09/15 06:21:10;;;;;;;2.43;1.10;;;18.80;52.90;;;;;;5063408;27;47727;-65
2022/09/15 06:23:36;;;;;;;3.87;1.30;;;19.00;63.20;;;;;;5048386;28;46487;-65
2022/09/15 06:26:20;;;;;;;2.20;1.00;;;18.80;52.70;;;;;;5046969;28;46087;-64
2022/09/15 06:28:54;;;;;;;3.10;1.10;;;19.20;62.50;;;;;;5046173;28;46687;-64
2022/09/15 06:31:21;;;;;;;2.47;1.00;;;19.00;63.20;;;;;;5047565;28;46721;-64
2022/09/15 06:33:49;;;;;;;2.27;1.10;;;18.80;52.60;;;;;;5048087;28;46524;-64
2022/09/15 06:36:16;;;;;;;4.70;1.30;;;18.90;59.50;;;;;;5050431;28;45858;-64
2022/09/15 06:38:43;;;;;;;2.90;1.10;;;18.70;52.60;;;;;;5052955;28;46615;-64
2022/09/15 06:41:09;;;;;;;9.00;1.33;;;18.80;52.50;;;;;;5053447;28;48914;-64
2022/09/15 06:43:35;;;;;;;2.20;1.20;;;;;;;;;;5051996;28;46541;-64
2022/09/15 06:46:22;;;;;;;3.67;1.10;;;19.10;62.50;;;;;;5047723;28;46515;-64
2022/09/15 06:48:50;;;;;;;2.20;1.17;;;;;;;;;;5045803;28;46503;-65
2022/09/15 06:51:18;;;;;;;8.60;1.20;;;19.10;52.00;;;;;;5048181;28;46821;-65
2022/09/15 06:53:44;;;;;;;2.20;1.10;;;;;;;;;;5051214;28;46421;-64
2022/09/15 06:56:28;;;;;;;2.63;1.20;;;19.30;51.40;;;;;;5049465;28;45850;-64
2022/09/15 06:58:54;;;;;;;2.43;1.13;;;;;;;;;;5047927;28;46526;-64
2022/09/15 07:01:24;;;;;;;4.30;1.30;;;19.30;61.60;;;;;;5044452;28;47017;-65
2022/09/15 07:03:50;;;;;;;3.60;1.33;;;;;;;;;;5051136;28;46432;-64
2022/09/15 07:06:16;;;;;;;2.77;1.10;;;19.60;50.50;;;;;;5047305;28;46237;-64
2022/09/15 07:08:43;;;;;;;3.63;1.10;;;;;;;;;;5048541;28;46651;-65
2022/09/15 07:11:09;;;;;;;4.67;1.00;;;19.80;54.50;;;;;;5050615;28;46611;-65
2022/09/15 07:13:35;;;;;;;2.47;1.30;;;;;;;;;;5050808;28;46711;-64
2022/09/15 07:16:03;;;;;;;4.90;1.63;;;19.90;51.50;;;;;;5048065;28;46411;-64
2022/09/15 07:18:29;;;;;;;4.80;2.33;;;20.00;50.70;;;;;;5049816;28;46477;-64
2022/09/15 07:21:04;;;;;;;9.93;1.50;;;20.20;49.10;;;;;;5030136;28;49033;-64
2022/09/15 07:23:31;;;;;;;4.10;1.37;;;20.50;56.50;;;;;;5047267;28;46452;-64
2022/09/15 07:26:11;;;;;;;2.67;1.13;;;20.50;48.40;;;;;;5047522;28;46689;-64
2022/09/15 07:28:37;;;;;;;2.60;1.20;;;20.90;53.80;;;;;;5058231;28;46500;-63
2022/09/15 07:31:05;;;;;;;2.90;1.30;;;21.10;47.60;;;;;;5063713;28;47878;-63
2022/09/15 07:33:32;;;;;;;3.50;1.20;;;21.30;55.40;;;;;;5062621;28;46281;-63
2022/09/15 07:36:03;;;;;;;7.80;1.40;;;21.30;46.80;;;;;;5066024;28;46361;-63
2022/09/15 07:38:29;;;;;;;10.40;1.60;;;21.20;54.40;;;;;;5064087;28;46439;-63
2022/09/15 07:40:55;;;;;;;5.30;1.70;;;;;;;;;;5058435;28;49125;-64
2022/09/15 07:43:22;;;;;;;9.80;1.60;;;21.30;55.60;;;;;;5060246;28;46903;-63
2022/09/15 07:45:47;;;;;;;4.10;1.30;;;21.60;48.10;;;;;;5062487;28;46446;-64
2022/09/15 07:48:13;;;;;;;2.53;1.20;;;;;;;;;;5064962;28;46557;-64
2022/09/15 07:50:39;;;;;;;3.10;1.40;;;;;;;;;;5066477;28;46480;-64
2022/09/15 07:53:06;;;;;;;4.53;1.37;;;;;;;;;;5063805;28;46508;-63
2022/09/15 07:55:32;;;;;;;5.70;1.50;;;21.60;44.70;;;;;;5065369;28;46444;-64
2022/09/15 07:58:02;;;;;;;5.93;1.40;;;21.30;45.00;;;;;;5061994;27;46516;-64
2022/09/15 08:00:28;;;;;;;6.70;1.50;;;21.50;45.20;;;;;;5063189;28;46439;-63
2022/09/15 08:02:54;;;;;;;4.40;1.57;;;;;;;;;;5065687;28;46661;-64
2022/09/15 08:05:20;;;;;;;3.90;1.37;;;;;;;;;;5064855;28;46586;-64
2022/09/15 08:07:47;;;;;;;4.43;1.80;;;;;;;;;;5065610;28;46489;-65
2022/09/15 08:10:12;;;;;;;2.80;1.10;;;;;;;;;;5064646;28;48082;-65
2022/09/15 08:12:39;;;;;;;4.10;1.47;;;;;;;;;;5064331;27;47501;-65
2022/09/15 08:15:05;;;;;;;6.37;1.47;;;;;;;;;;5062466;28;46453;-66
2022/09/15 08:17:33;;;;;;;4.53;1.23;;;21.70;44.20;;;;;;5064955;28;46790;-64
2022/09/15 08:19:59;;;;;;;3.10;1.40;;;22.30;53.80;;;;;;5063316;28;46488;-66
2022/09/15 08:22:26;;;;;;;3.50;1.40;;;22.20;53.60;;;;;;5063183;28;46900;-66
2022/09/15 08:24:55;;;;;;;2.97;1.30;;;22.40;53.30;;;;;;5064537;28;46450;-62
2022/09/15 08:27:23;;;;;;;2.50;1.23;;;22.10;52.80;;;;;;5066006;28;46600;-63
2022/09/15 08:29:50;;;;;;;3.63;1.30;;;22.40;41.90;;;;;;5065241;27;46832;-63
2022/09/15 08:32:18;;;;;;;2.90;1.27;;;22.50;41.80;;;;;;5064721;28;46665;-63
2022/09/15 08:34:45;;;;;;;2.73;1.20;;;22.60;41.20;;;;;;5066963;27;46404;-63
2022/09/15 08:37:11;;;;;;;4.63;1.07;;;;;;;;;;5067225;28;46466;-63
2022/09/15 08:39:37;;;;;;;4.80;1.37;;;22.60;40.50;;;;;;5063917;28;46710;-63
2022/09/15 08:42:05;;;;;;;2.00;1.10;;;22.80;40.50;;;;;;5067999;28;45921;-62
2022/09/15 08:44:56;;;;;;;2.90;1.60;;;22.90;40.30;;;;;;5067079;28;46426;-62
2022/09/15 08:47:38;;;;;;;4.87;1.40;;;22.80;43.30;;;;;;5066402;28;46445;-64
2022/09/15 08:50:14;;;;;;;4.77;1.40;;;22.50;40.00;;;;;;5066409;28;46502;-62
2022/09/15 08:52:51;;;;;;;4.77;1.60;;;22.70;39.70;;;;;;5067362;28;46342;-62
2022/09/15 08:55:35;;;;;;;5.90;1.20;;;23.10;39.20;;;;;;5070062;28;46000;-63
2022/09/15 08:58:06;;;;;;;5.80;1.20;;;23.10;46.80;;;;;;5061802;28;46384;-64
2022/09/15 09:00:34;;;;;;;5.53;1.53;;;23.00;39.40;;;;;;5069874;27;46630;-62
2022/09/15 09:03:14;;;;;;;5.13;1.60;;;23.20;37.30;;;;;;5065996;28;46361;-62
2022/09/15 09:06:02;;;;;;;3.93;1.57;;;23.40;38.00;;;;;;5066684;28;46404;-63
2022/09/15 09:08:54;;;;;;;7.43;1.70;;;23.70;36.60;;;;;;5067372;28;46627;-63
2022/09/15 09:11:40;;;;;;;6.40;1.53;;;23.90;42.50;;;;;;5067482;28;46421;-64
2022/09/15 09:14:37;;;;;;;9.60;1.53;;;23.50;35.70;;;;;;5053295;28;46410;-63
2022/09/15 09:17:44;;;;;;;4.70;1.63;;;23.50;35.10;;;;;;5067647;28;46373;-62
2022/09/15 09:20:39;;;;;;;8.17;1.50;;;23.60;35.30;;;;;;5048726;28;47585;-63
2022/09/15 09:23:15;;;;;;;4.83;1.27;;;23.50;34.30;;;;;;5068236;28;47301;-62
2022/09/15 09:25:47;;;;;;;5.43;1.17;;;23.60;34.30;;;;;;5067168;28;46889;-63
2022/09/15 09:29:06;;;;;;;2.20;1.17;;;24.00;33.70;;;;;;5071071;28;45801;-62
2022/09/15 09:31:36;;;;;;;5.53;1.40;;;23.70;32.40;;;;;;5042299;28;46502;-64
2022/09/15 09:34:14;;;;;;;2.87;1.10;;;23.70;32.60;;;;;;5063979;28;46926;-63
2022/09/15 09:36:42;;;;;;;4.73;1.33;;;23.90;33.70;;;;;;5063457;28;46447;-64
2022/09/15 09:39:16;;;;;;;3.33;1.20;;;23.60;33.60;;;;;;5062377;28;45839;-62
2022/09/15 09:41:45;;;;;;;3.47;1.50;;;23.50;32.70;;;;;;5060274;28;46727;-64
2022/09/15 09:44:15;;;;;;;4.17;1.40;;;23.30;32.40;;;;;;5061344;28;46470;-62
2022/09/15 09:46:46;;;;;;;9.13;1.60;;;23.00;38.00;;;;;;5061037;28;46322;-63
2022/09/15 09:49:26;;;;;;;2.80;1.60;;;23.50;31.80;;;;;;5061875;28;46432;-63
2022/09/15 09:52:02;;;;;;;4.73;1.60;;;23.10;37.80;;;;;;5059001;28;46586;-65
2022/09/15 09:54:31;;;;;;;4.17;1.27;;;23.30;40.50;;;;;;5064002;28;46497;-64
2022/09/15 09:57:16;;;;;;;7.30;1.53;;;23.10;31.60;;;;;;5058244;28;46460;-63
2022/09/15 09:59:49;;;;;;;4.67;1.50;;;23.40;39.00;;;;;;5063273;28;46456;-63
2022/09/15 10:02:28;;;;;;;13.93;1.60;;;23.60;38.90;;;;;;5063298;28;46389;-64
2022/09/15 10:05:23;;;;;;;6.27;1.67;;;22.90;31.80;;;;;;5064281;28;46305;-64
2022/09/15 10:08:02;;;;;;;4.30;1.40;;;22.80;32.10;;;;;;5058334;28;46405;-63
2022/09/15 10:10:31;;;;;;;2.67;1.20;;;22.50;32.80;;;;;;5062105;28;46473;-63
2022/09/15 10:13:02;;;;;;;2.70;1.23;;;22.40;33.30;;;;;;5059810;28;45885;-64
2022/09/15 10:15:33;;;;;;;4.20;1.33;;;22.20;34.00;;;;;;5062645;28;46512;-63
2022/09/15 10:18:02;;;;;;;5.80;1.30;;;22.00;34.70;;;;;;5065806;28;46455;-63
2022/09/15 10:20:55;;;;;;;2.33;0.93;;;21.60;34.40;;;;;;5059580;28;46328;-62
2022/09/15 10:23:30;;;;;;;8.67;1.17;;;22.30;34.10;;;;;;5063401;28;46371;-62
2022/09/15 10:26:31;;;;;;;3.83;1.50;;;22.50;33.30;;;;;;5064508;28;46364;-62
2022/09/15 10:29:26;;;;;;;4.17;1.03;;;22.30;42.90;;;;;;5063645;28;45882;-62
2022/09/15 10:31:56;;;;;;;2.33;1.30;;;22.60;33.20;;;;;;5061185;28;46520;-63
2022/09/15 10:34:32;;;;;;;3.57;1.27;;;22.90;33.10;;;;;;5061899;28;46472;-63
2022/09/15 10:37:41;;;;;;;3.90;1.70;;;23.00;33.10;;;;;;5060938;28;46426;-63
2022/09/15 10:40:38;;;;;;;3.60;1.30;;;23.10;34.60;;;;;;5060680;28;46823;-64
2022/09/15 10:43:25;;;;;;;5.57;1.43;;;23.60;42.20;;;;;;5038802;28;46608;-63
2022/09/15 10:46:17;;;;;;;6.10;1.70;;;23.10;34.80;;;;;;5063563;28;46555;-63
2022/09/15 10:49:22;;;;;;;2.57;1.07;;;23.20;33.60;;;;;;5061301;28;48837;-63
2022/09/15 10:51:50;;;;;;;9.03;1.30;;;23.10;41.90;;;;;;5061829;28;46401;-64
2022/09/15 10:54:29;;;;;;;5.20;1.50;;;22.40;42.60;;;;;;5060584;27;46474;-64
2022/09/15 10:57:17;;;;;;;3.83;1.30;;;22.80;34.00;;;;;;5060149;28;46410;-63
2022/09/15 11:00:07;;;;;;;5.20;1.27;;;22.50;34.40;;;;;;5061590;28;46900;-63
2022/09/15 11:03:03;;;;;;;4.57;1.27;;;22.70;34.50;;;;;;5062240;28;46531;-62
2022/09/15 11:06:01;;;;;;;3.37;1.30;;;22.80;34.20;;;;;;5063694;28;45929;-63
2022/09/15 11:08:53;;;;;;;7.03;1.40;;;22.70;34.90;;;;;;5060135;28;46418;-63
2022/09/15 11:11:44;;;;;;;8.90;1.60;;;22.80;37.70;;;;;;5062134;28;46105;-63
2022/09/15 11:14:18;;;;;;;3.73;1.40;;;23.00;39.80;;;;;;5058527;28;46626;-63
2022/09/15 11:17:22;;;;;;;2.63;1.10;;;23.00;34.70;;;;;;5060992;28;46342;-62
2022/09/15 11:20:24;;;;;;;3.50;1.47;;;23.10;37.30;;;;;;5059923;28;46404;-62
2022/09/15 11:23:02;;;;;;;3.07;1.20;;;23.40;33.40;;;;;;5062914;28;46865;-62
2022/09/15 11:25:32;;;;;;;13.17;1.63;;;23.60;32.70;;;;;;5062692;28;46354;-66
2022/09/15 11:28:09;;;;;;;3.60;1.33;;;23.80;32.50;;;;;;5057733;28;46348;-66
2022/09/15 11:30:41;;;;;;;2.40;1.17;;;23.70;32.20;;;;;;5060148;28;46416;-64
2022/09/15 11:33:38;;;;;;;3.10;1.30;;;23.50;32.10;;;;;;5062072;28;47278;-65
2022/09/15 11:36:13;;;;;;;5.60;1.50;;;24.00;35.60;;;;;;5060517;28;46484;-64
2022/09/15 11:38:51;;;;;;;5.20;1.50;;;23.80;32.20;;;;;;5058736;28;46500;-64
2022/09/15 11:41:37;;;;;;;7.93;2.07;;;23.80;32.20;;;;;;5058354;28;46552;-64
2022/09/15 11:44:29;;;;;;;5.00;1.30;;;23.60;32.70;;;;;;5056779;28;47257;-65
2022/09/15 11:47:22;;;;;;;2.73;1.43;;;23.10;33.40;;;;;;5053896;28;46445;-64
2022/09/15 11:49:48;;;;;;;4.43;1.47;;;;;;;;;;5064089;28;46290;-62
2022/09/15 11:52:14;;;;;;;7.30;1.60;;;22.30;39.80;;;;;;5054344;28;46411;-63
2022/09/15 11:55:11;;;;;;;3.23;1.43;;;21.50;38.20;;;;;;5059919;28;46426;-63
2022/09/15 11:57:43;;;;;;;4.73;1.40;;;21.20;39.00;;;;;;5028115;28;46487;-63
2022/09/15 12:00:13;;;;;;;4.67;1.40;;;21.40;40.40;;;;;;5058636;28;45931;-65
2022/09/15 12:03:12;;;;;;;4.43;1.70;;;21.80;38.00;;;;;;5060225;28;46780;-64
2022/09/15 12:05:48;;;;;;;4.60;1.60;;;22.00;37.40;;;;;;5064339;28;46493;-64
2022/09/15 12:08:37;;;;;;;3.23;1.50;;;22.80;36.00;;;;;;5061914;28;46460;-64
2022/09/15 12:11:16;;;;;;;2.57;1.53;;;22.90;35.70;;;;;;5061556;28;46358;-64
2022/09/15 12:13:44;;;;;;;3.70;1.57;;;23.50;37.90;;;;;;5060490;28;46803;-65
2022/09/15 12:16:13;;;;;;;2.80;1.30;;;23.00;45.30;;;;;;5063305;28;48756;-63
2022/09/15 12:18:57;;;;;;;4.03;1.77;;;23.10;38.20;;;;;;5051734;28;46366;-62
2022/09/15 12:21:49;;;;;;;11.23;2.43;;;23.40;35.60;;;;;;5060826;28;46478;-63
2022/09/15 12:24:36;;;;;;;3.80;1.50;;;23.10;35.80;;;;;;5066539;28;46586;-63
2022/09/15 12:27:04;;;;;;;2.67;1.30;;;23.40;41.20;;;;;;5060682;28;46493;-63
2022/09/15 12:29:40;;;;;;;2.70;1.20;;;23.00;44.50;;;;;;5066917;28;46388;-63
2022/09/15 12:32:20;;;;;;;3.00;1.30;;;23.50;35.40;;;;;;5061509;28;46746;-64
2022/09/15 12:35:04;;;;;;;3.63;1.40;;;23.60;35.20;;;;;;5062203;28;46550;-63
2022/09/15 12:37:59;;;;;;;4.00;1.40;;;23.30;35.40;;;;;;5061196;28;47453;-64
2022/09/15 12:40:35;;;;;;;3.10;1.23;;;23.30;45.50;;;;;;5052599;28;46572;-63
2022/09/15 12:43:22;;;;;;;4.60;1.30;;;23.20;35.90;;;;;;5065386;28;46433;-63
2022/09/15 12:46:00;;;;;;;3.00;1.27;;;23.10;43.80;;;;;;5062484;28;46454;-63
2022/09/15 12:48:30;;;;;;;3.97;1.20;;;23.60;45.00;;;;;;5060477;28;47300;-63
2022/09/15 12:51:04;;;;;;;6.13;1.33;;;23.50;35.40;;;;;;5062015;28;46469;-64
2022/09/15 12:53:32;;;;;;;1.93;1.00;;;23.80;44.80;;;;;;5064044;28;46654;-63
2022/09/15 12:56:04;;;;;;;2.83;1.27;;;23.30;42.40;;;;;;5057700;28;46452;-63
2022/09/15 12:58:37;;;;;;;3.23;1.50;;;23.50;34.70;;;;;;5061919;28;46513;-63
2022/09/15 13:01:18;;;;;;;3.20;1.23;;;23.60;44.10;;;;;;5061957;28;46544;-63
2022/09/15 13:03:44;;;;;;;2.77;1.10;;;;;;;;;;5066250;28;46488;-61
2022/09/15 13:06:17;;;;;;;6.90;1.40;;;22.90;35.60;;;;;;5061664;28;46317;-62
2022/09/15 13:08:49;;;;;;;2.67;1.20;;;22.80;45.20;;;;;;5060683;28;49131;-63
2022/09/15 13:11:24;;;;;;;9.33;2.00;;;22.50;41.20;;;;;;5065953;28;46236;-63
2022/09/15 13:13:56;;;;;;;2.93;1.40;;;22.20;45.10;;;;;;5065870;28;46826;-63
2022/09/15 13:16:29;;;;;;;3.30;1.30;;;22.40;36.00;;;;;;5070661;28;46612;-63
2022/09/15 13:19:18;;;;;;;5.63;1.50;;;22.70;35.50;;;;;;5066664;28;46716;-64
2022/09/15 13:21:52;;;;;;;6.80;1.37;;;22.90;35.70;;;;;;5068824;27;47000;-63
2022/09/15 13:24:26;;;;;;;5.30;1.43;;;23.00;42.60;;;;;;5067403;28;46578;-63
2022/09/15 13:26:55;;;;;;;3.10;1.43;;;23.20;41.00;;;;;;5062845;28;46435;-64
2022/09/15 13:29:23;;;;;;;2.80;1.07;;;23.10;43.00;;;;;;5067088;28;47263;-63
2022/09/15 13:32:06;;;;;;;2.20;1.13;;;22.70;41.20;;;;;;5066105;28;46554;-63
2022/09/15 13:35:00;;;;;;;5.13;1.53;;;22.50;35.30;;;;;;5069424;28;46205;-63